sensor_id;sensor_type;location;lat;lon;timestamp;P1;durP1;ratioP1;P2;durP2;ratioP2
69256;SDS011;56376;53.356;-1.748;2024-02-21T00:00:42;5.68;;;5.18;;
69256;SDS011;56376;53.356;-1.748;2024-02-21T00:03:07;5.45;;;4.95;;
69256;SDS011;56376;53.356;-1.748;2024-02-21T00:05:33;5.57;;;4.80;;
69256;SDS011;56376;53.356;-1.748;2024-02-21T00:07:59;5.13;;;4.63;;
69256;SDS011;56376;53.356;-1.748;2024-02-21T00:10:25;5.07;;;4.57;;
69256;SDS011;56376;53.356;-1.748;2024-02-21T00:12:51;4.68;;;4.13;;
69256;SDS011;56376;53.356;-1.748;2024-02-21T00:15:17;5.20;;;4.45;;
69256;SDS011;56376;53.356;-1.748;2024-02-21T00:17:45;4.38;;;3.85;;
69256;SDS011;56376;53.356;-1.748;2024-02-21T00:20:11;4.57;;;4.00;;
69256;SDS011;56376;53.356;-1.748;2024-02-21T00:22:37;5.82;;;4.90;;
69256;SDS011;56376;53.356;-1.748;2024-02-21T00:25:02;6.22;;;4.85;;
69256;SDS011;56376;53.356;-1.748;2024-02-21T00:27:28;5.00;;;4.50;;
69256;SDS011;56376;53.356;-1.748;2024-02-21T00:29:54;5.15;;;4.30;;
69256;SDS011;56376;53.356;-1.748;2024-02-21T00:32:19;5.45;;;4.95;;
69256;SDS011;56376;53.356;-1.748;2024-02-21T00:34:45;4.93;;;3.83;;
69256;SDS011;56376;53.356;-1.748;2024-02-21T00:37:11;5.00;;;4.50;;
69256;SDS011;56376;53.356;-1.748;2024-02-21T00:39:36;5.47;;;4.45;;
69256;SDS011;56376;53.356;-1.748;2024-02-21T00:42:02;6.45;;;5.05;;
69256;SDS011;56376;53.356;-1.748;2024-02-21T00:44:28;7.28;;;6.50;;
69256;SDS011;56376;53.356;-1.748;2024-02-21T00:46:53;6.88;;;5.25;;
69256;SDS011;56376;53.356;-1.748;2024-02-21T00:49:19;6.22;;;5.03;;
69256;SDS011;56376;53.356;-1.748;2024-02-21T00:51:44;6.43;;;5.75;;
69256;SDS011;56376;53.356;-1.748;2024-02-21T00:54:10;6.13;;;5.50;;
69256;SDS011;56376;53.356;-1.748;2024-02-21T00:56:35;5.97;;;5.28;;
69256;SDS011;56376;53.356;-1.748;2024-02-21T00:59:01;4.90;;;4.40;;
69256;SDS011;56376;53.356;-1.748;2024-02-21T01:01:26;6.43;;;5.43;;
69256;SDS011;56376;53.356;-1.748;2024-02-21T01:03:52;7.13;;;6.30;;
69256;SDS011;56376;53.356;-1.748;2024-02-21T01:06:19;7.50;;;6.13;;
69256;SDS011;56376;53.356;-1.748;2024-02-21T01:08:45;9.25;;;7.25;;
69256;SDS011;56376;53.356;-1.748;2024-02-21T01:11:12;9.30;;;7.72;;
69256;SDS011;56376;53.356;-1.748;2024-02-21T01:13:38;7.47;;;6.70;;
69256;SDS011;56376;53.356;-1.748;2024-02-21T01:16:04;8.57;;;7.10;;
69256;SDS011;56376;53.356;-1.748;2024-02-21T01:18:31;9.75;;;7.60;;
69256;SDS011;56376;53.356;-1.748;2024-02-21T01:20:59;10.20;;;7.50;;
69256;SDS011;56376;53.356;-1.748;2024-02-21T01:23:25;8.88;;;7.07;;
69256;SDS011;56376;53.356;-1.748;2024-02-21T01:25:51;6.93;;;6.22;;
69256;SDS011;56376;53.356;-1.748;2024-02-21T01:28:17;6.80;;;5.82;;
69256;SDS011;56376;53.356;-1.748;2024-02-21T01:30:43;6.40;;;5.25;;
69256;SDS011;56376;53.356;-1.748;2024-02-21T01:33:09;6.57;;;5.57;;
69256;SDS011;56376;53.356;-1.748;2024-02-21T01:35:35;7.45;;;5.03;;
69256;SDS011;56376;53.356;-1.748;2024-02-21T01:38:01;6.40;;;5.20;;
69256;SDS011;56376;53.356;-1.748;2024-02-21T01:40:27;6.50;;;5.00;;
69256;SDS011;56376;53.356;-1.748;2024-02-21T01:42:55;7.10;;;5.30;;
69256;SDS011;56376;53.356;-1.748;2024-02-21T01:45:20;6.55;;;5.00;;
69256;SDS011;56376;53.356;-1.748;2024-02-21T01:47:47;7.28;;;5.30;;
69256;SDS011;56376;53.356;-1.748;2024-02-21T01:50:14;6.38;;;4.75;;
69256;SDS011;56376;53.356;-1.748;2024-02-21T01:52:40;7.20;;;5.38;;
69256;SDS011;56376;53.356;-1.748;2024-02-21T01:55:08;6.65;;;5.40;;
69256;SDS011;56376;53.356;-1.748;2024-02-21T01:57:36;7.05;;;4.88;;
69256;SDS011;56376;53.356;-1.748;2024-02-21T02:00:02;6.25;;;5.20;;
69256;SDS011;56376;53.356;-1.748;2024-02-21T02:02:28;5.85;;;4.72;;
69256;SDS011;56376;53.356;-1.748;2024-02-21T02:04:54;6.38;;;5.00;;
69256;SDS011;56376;53.356;-1.748;2024-02-21T02:07:20;6.10;;;4.90;;
69256;SDS011;56376;53.356;-1.748;2024-02-21T02:09:45;6.07;;;4.82;;
69256;SDS011;56376;53.356;-1.748;2024-02-21T02:12:11;6.93;;;5.22;;
69256;SDS011;56376;53.356;-1.748;2024-02-21T02:14:36;6.47;;;5.03;;
69256;SDS011;56376;53.356;-1.748;2024-02-21T02:17:02;5.20;;;4.68;;
69256;SDS011;56376;53.356;-1.748;2024-02-21T02:19:27;5.85;;;4.88;;
69256;SDS011;56376;53.356;-1.748;2024-02-21T02:21:58;5.63;;;4.85;;
69256;SDS011;56376;53.356;-1.748;2024-02-21T02:24:30;5.07;;;4.50;;
69256;SDS011;56376;53.356;-1.748;2024-02-21T02:26:56;4.78;;;4.22;;
69256;SDS011;56376;53.356;-1.748;2024-02-21T02:29:21;4.90;;;4.40;;
69256;SDS011;56376;53.356;-1.748;2024-02-21T02:31:47;4.70;;;4.20;;
69256;SDS011;56376;53.356;-1.748;2024-02-21T02:34:14;4.47;;;4.03;;
69256;SDS011;56376;53.356;-1.748;2024-02-21T02:36:39;4.32;;;3.92;;
69256;SDS011;56376;53.356;-1.748;2024-02-21T02:39:05;4.18;;;3.53;;
69256;SDS011;56376;53.356;-1.748;2024-02-21T02:41:34;4.00;;;3.58;;
69256;SDS011;56376;53.356;-1.748;2024-02-21T02:44:00;4.30;;;3.90;;
69256;SDS011;56376;53.356;-1.748;2024-02-21T02:46:26;4.05;;;3.65;;
69256;SDS011;56376;53.356;-1.748;2024-02-21T02:48:51;3.22;;;2.92;;
69256;SDS011;56376;53.356;-1.748;2024-02-21T02:51:17;4.45;;;4.00;;
69256;SDS011;56376;53.356;-1.748;2024-02-21T02:53:43;4.07;;;3.67;;
69256;SDS011;56376;53.356;-1.748;2024-02-21T02:56:13;5.53;;;4.00;;
69256;SDS011;56376;53.356;-1.748;2024-02-21T02:58:39;4.65;;;3.95;;
69256;SDS011;56376;53.356;-1.748;2024-02-21T03:01:06;8.98;;;6.75;;
69256;SDS011;56376;53.356;-1.748;2024-02-21T03:03:32;10.05;;;6.78;;
69256;SDS011;56376;53.356;-1.748;2024-02-21T03:05:57;6.93;;;5.70;;
69256;SDS011;56376;53.356;-1.748;2024-02-21T03:08:23;5.82;;;5.20;;
69256;SDS011;56376;53.356;-1.748;2024-02-21T03:10:48;6.50;;;5.78;;
69256;SDS011;56376;53.356;-1.748;2024-02-21T03:13:13;5.60;;;5.10;;
69256;SDS011;56376;53.356;-1.748;2024-02-21T03:15:39;7.00;;;6.38;;
69256;SDS011;56376;53.356;-1.748;2024-02-21T03:18:04;5.85;;;5.07;;
69256;SDS011;56376;53.356;-1.748;2024-02-21T03:20:30;6.03;;;4.65;;
69256;SDS011;56376;53.356;-1.748;2024-02-21T03:22:56;6.70;;;6.10;;
69256;SDS011;56376;53.356;-1.748;2024-02-21T03:25:21;6.85;;;5.90;;
69256;SDS011;56376;53.356;-1.748;2024-02-21T03:27:47;7.13;;;6.25;;
69256;SDS011;56376;53.356;-1.748;2024-02-21T03:30:12;6.78;;;5.80;;
69256;SDS011;56376;53.356;-1.748;2024-02-21T03:32:38;6.85;;;5.40;;
69256;SDS011;56376;53.356;-1.748;2024-02-21T03:35:04;7.03;;;6.32;;
69256;SDS011;56376;53.356;-1.748;2024-02-21T03:37:30;9.73;;;6.35;;
69256;SDS011;56376;53.356;-1.748;2024-02-21T03:39:55;9.07;;;7.10;;
69256;SDS011;56376;53.356;-1.748;2024-02-21T03:42:21;9.13;;;7.97;;
69256;SDS011;56376;53.356;-1.748;2024-02-21T03:44:46;10.18;;;7.68;;
69256;SDS011;56376;53.356;-1.748;2024-02-21T03:47:12;10.35;;;7.72;;
69256;SDS011;56376;53.356;-1.748;2024-02-21T03:49:37;6.65;;;5.97;;
69256;SDS011;56376;53.356;-1.748;2024-02-21T03:52:03;5.72;;;5.13;;
69256;SDS011;56376;53.356;-1.748;2024-02-21T03:54:29;5.97;;;4.85;;
69256;SDS011;56376;53.356;-1.748;2024-02-21T03:56:54;4.90;;;4.50;;
69256;SDS011;56376;53.356;-1.748;2024-02-21T03:59:21;5.18;;;4.68;;
69256;SDS011;56376;53.356;-1.748;2024-02-21T04:01:51;4.30;;;3.90;;
69256;SDS011;56376;53.356;-1.748;2024-02-21T04:04:17;4.15;;;3.58;;
69256;SDS011;56376;53.356;-1.748;2024-02-21T04:06:47;3.60;;;3.25;;
69256;SDS011;56376;53.356;-1.748;2024-02-21T04:09:13;3.65;;;3.17;;
69256;SDS011;56376;53.356;-1.748;2024-02-21T04:11:38;6.15;;;4.50;;
69256;SDS011;56376;53.356;-1.748;2024-02-21T04:14:04;4.00;;;3.63;;
69256;SDS011;56376;53.356;-1.748;2024-02-21T04:16:29;4.63;;;3.97;;
69256;SDS011;56376;53.356;-1.748;2024-02-21T04:18:55;3.20;;;2.90;;
69256;SDS011;56376;53.356;-1.748;2024-02-21T04:21:20;5.68;;;3.00;;
69256;SDS011;56376;53.356;-1.748;2024-02-21T04:23:45;4.35;;;2.63;;
69256;SDS011;56376;53.356;-1.748;2024-02-21T04:26:11;3.30;;;2.40;;
69256;SDS011;56376;53.356;-1.748;2024-02-21T04:28:36;2.55;;;2.35;;
69256;SDS011;56376;53.356;-1.748;2024-02-21T04:31:03;3.38;;;2.80;;
69256;SDS011;56376;53.356;-1.748;2024-02-21T04:33:28;2.30;;;2.08;;
69256;SDS011;56376;53.356;-1.748;2024-02-21T04:35:54;2.53;;;2.00;;
69256;SDS011;56376;53.356;-1.748;2024-02-21T04:38:20;2.60;;;2.08;;
69256;SDS011;56376;53.356;-1.748;2024-02-21T04:40:46;2.95;;;1.80;;
69256;SDS011;56376;53.356;-1.748;2024-02-21T04:43:11;1.58;;;1.42;;
69256;SDS011;56376;53.356;-1.748;2024-02-21T04:45:37;3.30;;;1.88;;
69256;SDS011;56376;53.356;-1.748;2024-02-21T04:48:02;1.90;;;1.63;;
69256;SDS011;56376;53.356;-1.748;2024-02-21T04:50:28;2.08;;;1.88;;
69256;SDS011;56376;53.356;-1.748;2024-02-21T04:52:53;1.50;;;1.40;;
69256;SDS011;56376;53.356;-1.748;2024-02-21T04:55:19;2.28;;;1.92;;
69256;SDS011;56376;53.356;-1.748;2024-02-21T04:57:44;1.45;;;1.35;;
69256;SDS011;56376;53.356;-1.748;2024-02-21T05:00:10;1.20;;;1.10;;
69256;SDS011;56376;53.356;-1.748;2024-02-21T05:02:36;2.38;;;1.85;;
69256;SDS011;56376;53.356;-1.748;2024-02-21T05:05:01;2.63;;;1.77;;
69256;SDS011;56376;53.356;-1.748;2024-02-21T05:07:27;3.67;;;1.60;;
69256;SDS011;56376;53.356;-1.748;2024-02-21T05:09:53;2.15;;;1.73;;
69256;SDS011;56376;53.356;-1.748;2024-02-21T05:12:18;1.40;;;1.30;;
69256;SDS011;56376;53.356;-1.748;2024-02-21T05:14:44;1.40;;;1.20;;
69256;SDS011;56376;53.356;-1.748;2024-02-21T05:17:09;2.53;;;1.35;;
69256;SDS011;56376;53.356;-1.748;2024-02-21T05:19:35;1.70;;;1.60;;
69256;SDS011;56376;53.356;-1.748;2024-02-21T05:22:00;1.70;;;1.60;;
69256;SDS011;56376;53.356;-1.748;2024-02-21T05:24:25;1.38;;;1.27;;
69256;SDS011;56376;53.356;-1.748;2024-02-21T05:26:51;1.05;;;0.95;;
69256;SDS011;56376;53.356;-1.748;2024-02-21T05:29:16;0.90;;;0.90;;
69256;SDS011;56376;53.356;-1.748;2024-02-21T05:31:54;2.45;;;1.33;;
69256;SDS011;56376;53.356;-1.748;2024-02-21T05:34:21;1.30;;;0.90;;
69256;SDS011;56376;53.356;-1.748;2024-02-21T05:36:46;0.60;;;0.60;;
69256;SDS011;56376;53.356;-1.748;2024-02-21T05:39:13;0.70;;;0.70;;
69256;SDS011;56376;53.356;-1.748;2024-02-21T05:41:39;1.13;;;0.90;;
69256;SDS011;56376;53.356;-1.748;2024-02-21T05:44:06;0.60;;;0.60;;
69256;SDS011;56376;53.356;-1.748;2024-02-21T05:46:31;0.75;;;0.73;;
69256;SDS011;56376;53.356;-1.748;2024-02-21T05:48:57;1.60;;;1.30;;
69256;SDS011;56376;53.356;-1.748;2024-02-21T05:51:22;1.17;;;1.00;;
69256;SDS011;56376;53.356;-1.748;2024-02-21T05:53:48;1.70;;;0.85;;
69256;SDS011;56376;53.356;-1.748;2024-02-21T05:56:13;1.85;;;1.00;;
69256;SDS011;56376;53.356;-1.748;2024-02-21T05:58:39;0.77;;;0.73;;
69256;SDS011;56376;53.356;-1.748;2024-02-21T06:01:05;1.58;;;0.70;;
69256;SDS011;56376;53.356;-1.748;2024-02-21T06:03:34;0.68;;;0.68;;
69256;SDS011;56376;53.356;-1.748;2024-02-21T06:06:00;0.57;;;0.57;;
69256;SDS011;56376;53.356;-1.748;2024-02-21T06:08:26;0.60;;;0.60;;
69256;SDS011;56376;53.356;-1.748;2024-02-21T06:10:51;0.73;;;0.60;;
69256;SDS011;56376;53.356;-1.748;2024-02-21T06:13:19;1.48;;;0.90;;
69256;SDS011;56376;53.356;-1.748;2024-02-21T06:15:50;1.45;;;1.00;;
69256;SDS011;56376;53.356;-1.748;2024-02-21T06:18:19;0.63;;;0.63;;
69256;SDS011;56376;53.356;-1.748;2024-02-21T06:20:45;0.95;;;0.95;;
69256;SDS011;56376;53.356;-1.748;2024-02-21T06:23:11;1.10;;;1.02;;
69256;SDS011;56376;53.356;-1.748;2024-02-21T06:25:37;1.58;;;1.40;;
69256;SDS011;56376;53.356;-1.748;2024-02-21T06:28:03;1.65;;;1.25;;
69256;SDS011;56376;53.356;-1.748;2024-02-21T06:30:30;1.80;;;1.60;;
69256;SDS011;56376;53.356;-1.748;2024-02-21T06:32:55;3.58;;;2.00;;
69256;SDS011;56376;53.356;-1.748;2024-02-21T06:35:21;2.65;;;1.20;;
69256;SDS011;56376;53.356;-1.748;2024-02-21T06:37:47;2.92;;;1.75;;
69256;SDS011;56376;53.356;-1.748;2024-02-21T06:40:16;1.58;;;1.27;;
69256;SDS011;56376;53.356;-1.748;2024-02-21T06:42:42;2.22;;;1.45;;
69256;SDS011;56376;53.356;-1.748;2024-02-21T06:45:07;1.92;;;1.23;;
69256;SDS011;56376;53.356;-1.748;2024-02-21T06:47:33;1.75;;;1.00;;
69256;SDS011;56376;53.356;-1.748;2024-02-21T06:49:58;1.40;;;1.00;;
69256;SDS011;56376;53.356;-1.748;2024-02-21T06:52:24;1.77;;;1.23;;
69256;SDS011;56376;53.356;-1.748;2024-02-21T06:54:50;2.13;;;1.10;;
69256;SDS011;56376;53.356;-1.748;2024-02-21T06:57:15;2.40;;;1.30;;
69256;SDS011;56376;53.356;-1.748;2024-02-21T06:59:41;1.23;;;1.00;;
69256;SDS011;56376;53.356;-1.748;2024-02-21T07:02:07;1.33;;;1.20;;
69256;SDS011;56376;53.356;-1.748;2024-02-21T07:04:34;1.33;;;1.20;;
69256;SDS011;56376;53.356;-1.748;2024-02-21T07:07:00;1.17;;;1.05;;
69256;SDS011;56376;53.356;-1.748;2024-02-21T07:09:25;2.13;;;1.38;;
69256;SDS011;56376;53.356;-1.748;2024-02-21T07:11:53;3.78;;;3.22;;
69256;SDS011;56376;53.356;-1.748;2024-02-21T07:14:19;5.43;;;4.30;;
69256;SDS011;56376;53.356;-1.748;2024-02-21T07:16:44;8.32;;;7.53;;
69256;SDS011;56376;53.356;-1.748;2024-02-21T07:19:10;2.90;;;2.45;;
69256;SDS011;56376;53.356;-1.748;2024-02-21T07:21:35;2.25;;;1.70;;
69256;SDS011;56376;53.356;-1.748;2024-02-21T07:24:03;2.72;;;1.67;;
69256;SDS011;56376;53.356;-1.748;2024-02-21T07:26:29;1.92;;;1.83;;
69256;SDS011;56376;53.356;-1.748;2024-02-21T07:28:56;3.53;;;2.20;;
69256;SDS011;56376;53.356;-1.748;2024-02-21T07:31:21;3.25;;;1.98;;
69256;SDS011;56376;53.356;-1.748;2024-02-21T07:33:47;2.42;;;2.03;;
69256;SDS011;56376;53.356;-1.748;2024-02-21T07:36:14;2.45;;;1.73;;
69256;SDS011;56376;53.356;-1.748;2024-02-21T07:38:40;2.08;;;1.63;;
69256;SDS011;56376;53.356;-1.748;2024-02-21T07:41:06;2.47;;;1.50;;
69256;SDS011;56376;53.356;-1.748;2024-02-21T07:43:32;1.70;;;1.50;;
69256;SDS011;56376;53.356;-1.748;2024-02-21T07:45:57;2.42;;;2.00;;
69256;SDS011;56376;53.356;-1.748;2024-02-21T07:48:23;4.40;;;1.80;;
69256;SDS011;56376;53.356;-1.748;2024-02-21T07:50:51;2.20;;;1.77;;
69256;SDS011;56376;53.356;-1.748;2024-02-21T07:53:17;1.65;;;1.42;;
69256;SDS011;56376;53.356;-1.748;2024-02-21T07:55:43;2.33;;;1.70;;
69256;SDS011;56376;53.356;-1.748;2024-02-21T07:58:08;1.65;;;1.48;;
69256;SDS011;56376;53.356;-1.748;2024-02-21T08:00:34;1.55;;;1.45;;
69256;SDS011;56376;53.356;-1.748;2024-02-21T08:02:59;2.10;;;1.30;;
69256;SDS011;56376;53.356;-1.748;2024-02-21T08:05:24;2.30;;;1.65;;
69256;SDS011;56376;53.356;-1.748;2024-02-21T08:07:50;1.50;;;1.40;;
69256;SDS011;56376;53.356;-1.748;2024-02-21T08:10:15;1.75;;;1.50;;
69256;SDS011;56376;53.356;-1.748;2024-02-21T08:12:41;3.17;;;1.50;;
69256;SDS011;56376;53.356;-1.748;2024-02-21T08:15:07;1.80;;;1.45;;
69256;SDS011;56376;53.356;-1.748;2024-02-21T08:17:35;2.58;;;1.30;;
69256;SDS011;56376;53.356;-1.748;2024-02-21T08:20:01;1.58;;;1.38;;
69256;SDS011;56376;53.356;-1.748;2024-02-21T08:22:28;1.58;;;1.48;;
69256;SDS011;56376;53.356;-1.748;2024-02-21T08:24:53;2.35;;;1.38;;
69256;SDS011;56376;53.356;-1.748;2024-02-21T08:27:19;3.78;;;1.33;;
69256;SDS011;56376;53.356;-1.748;2024-02-21T08:29:44;1.60;;;1.30;;
69256;SDS011;56376;53.356;-1.748;2024-02-21T08:32:10;2.67;;;1.45;;
69256;SDS011;56376;53.356;-1.748;2024-02-21T08:34:36;2.15;;;1.50;;
69256;SDS011;56376;53.356;-1.748;2024-02-21T08:37:02;2.17;;;1.60;;
69256;SDS011;56376;53.356;-1.748;2024-02-21T08:39:27;2.47;;;1.50;;
69256;SDS011;56376;53.356;-1.748;2024-02-21T08:41:55;2.05;;;1.55;;
69256;SDS011;56376;53.356;-1.748;2024-02-21T08:44:22;1.50;;;1.20;;
69256;SDS011;56376;53.356;-1.748;2024-02-21T08:46:52;1.65;;;1.15;;
69256;SDS011;56376;53.356;-1.748;2024-02-21T08:49:18;2.33;;;1.80;;
69256;SDS011;56376;53.356;-1.748;2024-02-21T08:51:43;1.23;;;1.13;;
69256;SDS011;56376;53.356;-1.748;2024-02-21T08:54:09;2.33;;;1.60;;
69256;SDS011;56376;53.356;-1.748;2024-02-21T08:56:34;2.38;;;1.70;;
69256;SDS011;56376;53.356;-1.748;2024-02-21T08:59:00;2.22;;;1.30;;
69256;SDS011;56376;53.356;-1.748;2024-02-21T09:01:26;2.63;;;1.40;;
69256;SDS011;56376;53.356;-1.748;2024-02-21T09:03:52;3.95;;;1.48;;
69256;SDS011;56376;53.356;-1.748;2024-02-21T09:06:18;1.65;;;1.50;;
69256;SDS011;56376;53.356;-1.748;2024-02-21T09:08:45;2.13;;;1.40;;
69256;SDS011;56376;53.356;-1.748;2024-02-21T09:11:11;1.85;;;1.52;;
69256;SDS011;56376;53.356;-1.748;2024-02-21T09:13:36;1.20;;;1.10;;
69256;SDS011;56376;53.356;-1.748;2024-02-21T09:16:02;1.40;;;1.30;;
69256;SDS011;56376;53.356;-1.748;2024-02-21T09:18:28;3.00;;;2.00;;
69256;SDS011;56376;53.356;-1.748;2024-02-21T09:20:54;2.60;;;2.08;;
69256;SDS011;56376;53.356;-1.748;2024-02-21T09:23:20;2.20;;;1.73;;
69256;SDS011;56376;53.356;-1.748;2024-02-21T09:25:45;2.65;;;2.28;;
69256;SDS011;56376;53.356;-1.748;2024-02-21T09:28:11;1.73;;;1.55;;
69256;SDS011;56376;53.356;-1.748;2024-02-21T09:30:38;2.92;;;1.40;;
69256;SDS011;56376;53.356;-1.748;2024-02-21T09:33:03;2.05;;;1.48;;
69256;SDS011;56376;53.356;-1.748;2024-02-21T09:35:30;1.85;;;1.50;;
69256;SDS011;56376;53.356;-1.748;2024-02-21T09:37:56;1.30;;;1.20;;
69256;SDS011;56376;53.356;-1.748;2024-02-21T09:40:21;3.03;;;2.72;;
69256;SDS011;56376;53.356;-1.748;2024-02-21T09:42:47;2.95;;;1.90;;
69256;SDS011;56376;53.356;-1.748;2024-02-21T09:45:21;2.80;;;1.92;;
69256;SDS011;56376;53.356;-1.748;2024-02-21T09:50:44;4.40;;;3.30;;
69256;SDS011;56376;53.356;-1.748;2024-02-21T09:53:12;3.65;;;1.88;;
69256;SDS011;56376;53.356;-1.748;2024-02-21T09:55:41;1.85;;;1.60;;
69256;SDS011;56376;53.356;-1.748;2024-02-21T09:58:08;2.30;;;1.70;;
69256;SDS011;56376;53.356;-1.748;2024-02-21T10:00:37;2.63;;;1.67;;
69256;SDS011;56376;53.356;-1.748;2024-02-21T10:03:03;3.33;;;1.90;;
69256;SDS011;56376;53.356;-1.748;2024-02-21T10:05:35;4.60;;;2.50;;
69256;SDS011;56376;53.356;-1.748;2024-02-21T10:08:01;2.75;;;2.15;;
69256;SDS011;56376;53.356;-1.748;2024-02-21T10:10:27;3.70;;;2.58;;
69256;SDS011;56376;53.356;-1.748;2024-02-21T10:12:54;4.85;;;3.22;;
69256;SDS011;56376;53.356;-1.748;2024-02-21T10:15:21;4.82;;;3.38;;
69256;SDS011;56376;53.356;-1.748;2024-02-21T10:17:48;2.80;;;2.35;;
69256;SDS011;56376;53.356;-1.748;2024-02-21T10:20:13;4.18;;;3.00;;
69256;SDS011;56376;53.356;-1.748;2024-02-21T10:22:40;6.72;;;4.50;;
69256;SDS011;56376;53.356;-1.748;2024-02-21T10:25:06;4.65;;;3.25;;
69256;SDS011;56376;53.356;-1.748;2024-02-21T10:27:34;4.05;;;3.20;;
69256;SDS011;56376;53.356;-1.748;2024-02-21T10:30:01;4.30;;;2.63;;
69256;SDS011;56376;53.356;-1.748;2024-02-21T10:32:27;2.25;;;2.00;;
69256;SDS011;56376;53.356;-1.748;2024-02-21T10:35:00;4.18;;;2.55;;
69256;SDS011;56376;53.356;-1.748;2024-02-21T10:37:33;2.70;;;2.10;;
69256;SDS011;56376;53.356;-1.748;2024-02-21T10:40:00;2.15;;;1.70;;
69256;SDS011;56376;53.356;-1.748;2024-02-21T10:42:28;3.08;;;2.22;;
69256;SDS011;56376;53.356;-1.748;2024-02-21T10:44:56;2.03;;;1.35;;
69256;SDS011;56376;53.356;-1.748;2024-02-21T10:47:27;1.15;;;1.00;;
69256;SDS011;56376;53.356;-1.748;2024-02-21T10:49:57;2.95;;;1.90;;
69256;SDS011;56376;53.356;-1.748;2024-02-21T10:55:45;3.30;;;1.83;;
69256;SDS011;56376;53.356;-1.748;2024-02-21T10:58:17;2.60;;;1.55;;
69256;SDS011;56376;53.356;-1.748;2024-02-21T11:00:43;2.17;;;1.98;;
69256;SDS011;56376;53.356;-1.748;2024-02-21T11:03:09;2.67;;;2.47;;
69256;SDS011;56376;53.356;-1.748;2024-02-21T11:05:35;3.38;;;2.00;;
69256;SDS011;56376;53.356;-1.748;2024-02-21T11:08:02;3.90;;;2.05;;
69256;SDS011;56376;53.356;-1.748;2024-02-21T11:10:30;2.75;;;2.55;;
69256;SDS011;56376;53.356;-1.748;2024-02-21T11:13:08;2.63;;;2.00;;
69256;SDS011;56376;53.356;-1.748;2024-02-21T11:15:34;2.17;;;1.65;;
69256;SDS011;56376;53.356;-1.748;2024-02-21T11:17:59;2.17;;;1.77;;
69256;SDS011;56376;53.356;-1.748;2024-02-21T11:20:32;2.42;;;1.80;;
69256;SDS011;56376;53.356;-1.748;2024-02-21T11:22:58;1.98;;;1.58;;
69256;SDS011;56376;53.356;-1.748;2024-02-21T11:25:24;1.67;;;1.50;;
69256;SDS011;56376;53.356;-1.748;2024-02-21T11:27:50;4.45;;;1.60;;
69256;SDS011;56376;53.356;-1.748;2024-02-21T11:30:30;1.52;;;0.95;;
69256;SDS011;56376;53.356;-1.748;2024-02-21T11:33:05;1.15;;;0.98;;
69256;SDS011;56376;53.356;-1.748;2024-02-21T11:35:32;1.27;;;1.00;;
69256;SDS011;56376;53.356;-1.748;2024-02-21T11:40:45;1.35;;;0.85;;
69256;SDS011;56376;53.356;-1.748;2024-02-21T11:43:11;1.67;;;1.20;;
69256;SDS011;56376;53.356;-1.748;2024-02-21T11:45:37;1.13;;;1.00;;
69256;SDS011;56376;53.356;-1.748;2024-02-21T11:48:05;0.77;;;0.77;;
69256;SDS011;56376;53.356;-1.748;2024-02-21T11:50:31;1.02;;;0.93;;
69256;SDS011;56376;53.356;-1.748;2024-02-21T11:52:57;1.73;;;0.70;;
69256;SDS011;56376;53.356;-1.748;2024-02-21T11:55:23;1.38;;;0.68;;
69256;SDS011;56376;53.356;-1.748;2024-02-21T11:57:49;0.68;;;0.68;;
69256;SDS011;56376;53.356;-1.748;2024-02-21T12:00:18;0.82;;;0.75;;
69256;SDS011;56376;53.356;-1.748;2024-02-21T12:02:47;1.10;;;0.70;;
69256;SDS011;56376;53.356;-1.748;2024-02-21T12:05:13;0.90;;;0.68;;
69256;SDS011;56376;53.356;-1.748;2024-02-21T12:07:39;1.20;;;0.73;;
69256;SDS011;56376;53.356;-1.748;2024-02-21T12:10:09;0.75;;;0.60;;
69256;SDS011;56376;53.356;-1.748;2024-02-21T12:12:36;0.70;;;0.68;;
69256;SDS011;56376;53.356;-1.748;2024-02-21T12:15:05;2.08;;;0.60;;
69256;SDS011;56376;53.356;-1.748;2024-02-21T12:17:37;1.30;;;0.82;;
69256;SDS011;56376;53.356;-1.748;2024-02-21T12:20:05;0.77;;;0.70;;
69256;SDS011;56376;53.356;-1.748;2024-02-21T12:22:37;0.77;;;0.70;;
69256;SDS011;56376;53.356;-1.748;2024-02-21T12:25:16;1.20;;;0.90;;
69256;SDS011;56376;53.356;-1.748;2024-02-21T12:27:43;1.13;;;0.73;;
69256;SDS011;56376;53.356;-1.748;2024-02-21T12:30:09;1.02;;;0.70;;
69256;SDS011;56376;53.356;-1.748;2024-02-21T12:32:35;0.93;;;0.80;;
69256;SDS011;56376;53.356;-1.748;2024-02-21T12:35:01;0.60;;;0.60;;
69256;SDS011;56376;53.356;-1.748;2024-02-21T12:37:27;0.98;;;0.60;;
69256;SDS011;56376;53.356;-1.748;2024-02-21T12:39:53;1.48;;;0.68;;
69256;SDS011;56376;53.356;-1.748;2024-02-21T12:42:18;0.45;;;0.45;;
69256;SDS011;56376;53.356;-1.748;2024-02-21T12:44:44;0.50;;;0.50;;
69256;SDS011;56376;53.356;-1.748;2024-02-21T12:47:10;0.40;;;0.40;;
69256;SDS011;56376;53.356;-1.748;2024-02-21T12:49:36;0.75;;;0.63;;
69256;SDS011;56376;53.356;-1.748;2024-02-21T12:52:02;0.50;;;0.50;;
69256;SDS011;56376;53.356;-1.748;2024-02-21T12:54:28;0.50;;;0.40;;
69256;SDS011;56376;53.356;-1.748;2024-02-21T12:56:55;0.40;;;0.40;;
69256;SDS011;56376;53.356;-1.748;2024-02-21T12:59:20;0.47;;;0.40;;
69256;SDS011;56376;53.356;-1.748;2024-02-21T13:01:46;0.60;;;0.50;;
69256;SDS011;56376;53.356;-1.748;2024-02-21T13:04:12;1.05;;;0.60;;
69256;SDS011;56376;53.356;-1.748;2024-02-21T13:06:37;0.38;;;0.38;;
69256;SDS011;56376;53.356;-1.748;2024-02-21T13:09:03;0.40;;;0.40;;
69256;SDS011;56376;53.356;-1.748;2024-02-21T13:11:32;3.45;;;1.40;;
69256;SDS011;56376;53.356;-1.748;2024-02-21T13:13:59;0.85;;;0.50;;
69256;SDS011;56376;53.356;-1.748;2024-02-21T13:16:24;0.30;;;0.30;;
69256;SDS011;56376;53.356;-1.748;2024-02-21T13:18:51;4.07;;;0.90;;
69256;SDS011;56376;53.356;-1.748;2024-02-21T13:21:16;1.27;;;0.40;;
69256;SDS011;56376;53.356;-1.748;2024-02-21T13:23:42;0.65;;;0.65;;
69256;SDS011;56376;53.356;-1.748;2024-02-21T13:26:09;0.52;;;0.52;;
69256;SDS011;56376;53.356;-1.748;2024-02-21T13:28:35;0.40;;;0.40;;
69256;SDS011;56376;53.356;-1.748;2024-02-21T13:31:00;1.50;;;0.70;;
69256;SDS011;56376;53.356;-1.748;2024-02-21T13:33:26;0.73;;;0.70;;
69256;SDS011;56376;53.356;-1.748;2024-02-21T13:35:53;1.02;;;0.77;;
69256;SDS011;56376;53.356;-1.748;2024-02-21T13:38:19;0.60;;;0.60;;
69256;SDS011;56376;53.356;-1.748;2024-02-21T13:40:44;0.50;;;0.50;;
69256;SDS011;56376;53.356;-1.748;2024-02-21T13:43:10;0.30;;;0.30;;
69256;SDS011;56376;53.356;-1.748;2024-02-21T13:45:36;0.40;;;0.40;;
69256;SDS011;56376;53.356;-1.748;2024-02-21T13:48:01;0.32;;;0.32;;
69256;SDS011;56376;53.356;-1.748;2024-02-21T13:50:30;0.20;;;0.20;;
69256;SDS011;56376;53.356;-1.748;2024-02-21T13:52:56;0.30;;;0.30;;
69256;SDS011;56376;53.356;-1.748;2024-02-21T13:55:22;0.20;;;0.20;;
69256;SDS011;56376;53.356;-1.748;2024-02-21T13:57:51;0.30;;;0.30;;
69256;SDS011;56376;53.356;-1.748;2024-02-21T14:00:16;0.40;;;0.40;;
69256;SDS011;56376;53.356;-1.748;2024-02-21T14:02:43;0.30;;;0.30;;
69256;SDS011;56376;53.356;-1.748;2024-02-21T14:05:09;0.30;;;0.30;;
69256;SDS011;56376;53.356;-1.748;2024-02-21T14:07:35;1.17;;;0.55;;
69256;SDS011;56376;53.356;-1.748;2024-02-21T14:10:00;0.47;;;0.47;;
69256;SDS011;56376;53.356;-1.748;2024-02-21T14:12:26;0.63;;;0.30;;
69256;SDS011;56376;53.356;-1.748;2024-02-21T14:14:52;0.28;;;0.28;;
69256;SDS011;56376;53.356;-1.748;2024-02-21T14:17:18;0.30;;;0.30;;
69256;SDS011;56376;53.356;-1.748;2024-02-21T14:19:45;0.32;;;0.32;;
69256;SDS011;56376;53.356;-1.748;2024-02-21T14:22:10;0.40;;;0.40;;
69256;SDS011;56376;53.356;-1.748;2024-02-21T14:24:36;0.45;;;0.45;;
69256;SDS011;56376;53.356;-1.748;2024-02-21T14:27:02;0.40;;;0.40;;
69256;SDS011;56376;53.356;-1.748;2024-02-21T14:29:28;0.93;;;0.50;;
69256;SDS011;56376;53.356;-1.748;2024-02-21T14:31:54;0.65;;;0.65;;
69256;SDS011;56376;53.356;-1.748;2024-02-21T14:34:19;0.50;;;0.50;;
69256;SDS011;56376;53.356;-1.748;2024-02-21T14:36:45;0.65;;;0.52;;